METAR Data
IDs: Format: Raw Decoded Include TAF

Data at: 1316 UTC 20 Oct 2021

METAR for:KPHL (Philadelphia Intl, PA, US)
Text:KPHL 201254Z 24009KT 10SM SCT280 16/08 A3009 RMK AO2 SLP190 T01560078
Temperature: 15.6°C ( 60°F)
Dewpoint: 7.8°C ( 46°F) [RH = 60%]
Pressure (altimeter):30.09 inches Hg (1019.0 mb) [Sea level pressure: 1019.0 mb]
Winds:from the WSW (240 degrees) at 10 MPH (9 knots; 4.6 m/s)
Visibility:10 or more sm (16+ km)
Ceiling:at least 12,000 feet AGL
Clouds: scattered clouds at 28000 feet AGL